»·PEaware :: AAL899 KLAX-KPHX

AAL899 :: KLAX-KPHX

FLIGHT INFORMATION

Flight Status: Arrived
Operator:
American Airlines
More flights by this operator :: More flights under this callsign
Pilot: Shaurye C. (26796)
Aircraft: AIRBUS A320
(A320)
More flights by this aircraft type
Origin: KLAX Los Angeles Intl
United States
Destination: KPHX Phoenix Sky Harbor Intl
United States
More flights between these airports :: More routes between these airports
Route: DOTSS2 CNERY BLH HYDRR1
File this flight plan on PilotEdge
Remarks: RMK / SIMBRIEF
Altitude:
(Current/Filed)
37,000ft
Speed:
(Current/Filed)
441kts
Departed: 10-Nov-19 08:43 AM
Arrived: 10-Nov-19 09:56 AM
Distance/Time
Traveled:
321nm/1:13
Distance/Time
To Go:
Arrived

Flight Plot

Page will automatically refresh every two minutes.

Flight plan parsing failed; only flown route is shown


Map Options




Map Legend


Flown Route
Filed Route
Departure Airport
Arrival Airport
Navaid (VOR, NDB)
Fix

Horizontal Profiles

Position Reports

Time Latitude Longitude Heading Altitude Ground
Speed
10-Nov-19 08:05 33.947054 -118.403491 229 119ft 0kts
10-Nov-19 08:06 33.947054 -118.403491 229 119ft 0kts
10-Nov-19 08:07 33.947054 -118.403491 229 119ft 0kts
10-Nov-19 08:08 33.947054 -118.403491 229 119ft 0kts
10-Nov-19 08:09 33.947054 -118.403490 229 120ft 0kts
10-Nov-19 08:10 33.947054 -118.403491 229 119ft 0kts
10-Nov-19 08:11 33.947054 -118.403491 229 119ft 0kts
10-Nov-19 08:12 33.947054 -118.403491 229 119ft 0kts
10-Nov-19 08:13 33.947054 -118.403491 229 119ft 0kts
10-Nov-19 08:14 33.947054 -118.403491 229 119ft 0kts
10-Nov-19 08:15 33.947054 -118.403491 229 119ft 0kts
10-Nov-19 08:16 33.947054 -118.403491 229 119ft 0kts
10-Nov-19 08:17 33.947054 -118.403491 229 119ft 0kts
10-Nov-19 08:18 33.947054 -118.403491 229 119ft 0kts
10-Nov-19 08:19 33.947054 -118.403490 229 120ft 0kts
10-Nov-19 08:20 33.947266 -118.403184 230 119ft 2kts
10-Nov-19 08:21 33.947374 -118.402747 295 118ft 2kts
10-Nov-19 08:22 33.947138 -118.402528 356 118ft 1kts
10-Nov-19 08:23 33.947093 -118.402525 354 118ft 0kts
10-Nov-19 08:24 33.947093 -118.402525 354 118ft 0kts
10-Nov-19 08:25 33.947093 -118.402525 354 118ft 0kts
10-Nov-19 08:26 33.947093 -118.402525 354 118ft 0kts
10-Nov-19 08:27 33.947101 -118.402526 354 118ft 0kts
10-Nov-19 08:28 33.948076 -118.403194 276 118ft 11kts
10-Nov-19 08:29 33.947713 -118.407038 263 121ft 23kts
10-Nov-19 08:30 33.946873 -118.412571 219 122ft 17kts
10-Nov-19 08:31 33.943479 -118.412301 173 123ft 18kts
10-Nov-19 08:32 33.939825 -118.411744 172 124ft 20kts
10-Nov-19 08:33 33.937714 -118.410343 82 127ft 12kts
10-Nov-19 08:34 33.938176 -118.405828 83 124ft 29kts
10-Nov-19 08:35 33.938868 -118.399315 86 116ft 30kts
10-Nov-19 08:36 33.939467 -118.393190 82 108ft 27kts
10-Nov-19 08:37 33.940146 -118.386573 83 104ft 31kts
10-Nov-19 08:38 33.940720 -118.381039 83 101ft 6kts
10-Nov-19 08:39 33.940723 -118.380768 97 101ft 0kts
10-Nov-19 08:40 33.940723 -118.380768 97 101ft 0kts
10-Nov-19 08:41 33.940071 -118.380162 180 101ft 5kts
10-Nov-19 08:42 33.939119 -118.387336 262 104ft 113kts
10-Nov-19 08:43 33.935037 -118.429347 263 1670ft 192kts
10-Nov-19 08:44 33.921184 -118.475463 232 3792ft 235kts
10-Nov-19 08:45 33.884515 -118.528872 230 6171ft 278kts
10-Nov-19 08:46 33.827959 -118.557100 167 9085ft 290kts
10-Nov-19 08:47 33.758174 -118.537632 166 11259ft 330kts
10-Nov-19 08:48 33.689918 -118.494593 117 12159ft 336kts
10-Nov-19 08:49 33.663266 -118.407169 108 12592ft 336kts
10-Nov-19 08:50 33.644401 -118.318237 88 13007ft 336kts
10-Nov-19 08:51 33.644613 -118.229866 88 13427ft 336kts
10-Nov-19 08:52 33.644639 -118.141072 88 15137ft 347kts
10-Nov-19 08:53 33.644615 -118.054091 88 17147ft 355kts
10-Nov-19 08:54 33.644476 -117.964618 87 18972ft 364kts
10-Nov-19 08:55 33.644300 -117.874232 87 20629ft 372kts
10-Nov-19 08:56 33.640542 -117.781176 101 22171ft 384kts
10-Nov-19 08:57 33.617018 -117.685144 103 23649ft 393kts
10-Nov-19 08:58 33.592972 -117.587659 103 25002ft 401kts
10-Nov-19 08:59 33.567977 -117.486697 102 26312ft 408kts
10-Nov-19 09:00 33.542246 -117.383180 102 27538ft 414kts
10-Nov-19 09:01 33.518707 -117.288840 103 28549ft 420kts
10-Nov-19 09:02 33.504013 -117.178562 87 29597ft 419kts
10-Nov-19 09:03 33.502588 -117.063902 88 30666ft 423kts
10-Nov-19 09:04 33.500887 -116.943707 90 31586ft 430kts
10-Nov-19 09:05 33.499003 -116.821415 91 32103ft 443kts
10-Nov-19 09:06 33.496847 -116.687790 91 33111ft 442kts
10-Nov-19 09:07 33.494575 -116.555336 91 34236ft 437kts
10-Nov-19 09:08 33.492155 -116.424046 91 35069ft 438kts
10-Nov-19 09:09 33.490295 -116.297434 92 35932ft 435kts
10-Nov-19 09:10 33.488278 -116.167769 91 36662ft 435kts
10-Nov-19 09:11 33.487323 -116.051854 85 37039ft 435kts
10-Nov-19 09:12 33.512321 -115.944217 71 37041ft 437kts
10-Nov-19 09:13 33.542594 -115.840981 71 37043ft 437kts
10-Nov-19 09:14 33.573023 -115.736550 71 37038ft 436kts
10-Nov-19 09:15 33.603675 -115.630911 71 37041ft 436kts
10-Nov-19 09:16 33.627596 -115.507510 92 37040ft 435kts
10-Nov-19 09:17 33.613158 -115.382619 92 37071ft 435kts
10-Nov-19 09:18 33.609948 -115.262495 92 37093ft 434kts
10-Nov-19 09:19 33.607097 -115.153765 94 37098ft 433kts
10-Nov-19 09:20 33.604184 -115.045981 97 36438ft 437kts
10-Nov-19 09:21 33.600940 -114.933658 97 35566ft 475kts
10-Nov-19 09:22 33.597355 -114.806790 97 34766ft 478kts
10-Nov-19 09:23 33.581695 -114.686588 109 33845ft 457kts
10-Nov-19 09:24 33.557495 -114.562347 109 32112ft 449kts
10-Nov-19 09:25 33.533034 -114.437280 108 30317ft 442kts
10-Nov-19 09:26 33.510481 -114.322548 109 28667ft 433kts
10-Nov-19 09:27 33.488177 -114.209668 108 26992ft 424kts
10-Nov-19 09:28 33.466343 -114.099749 108 25323ft 415kts
10-Nov-19 09:29 33.443317 -113.984573 108 24326ft 390kts
10-Nov-19 09:30 33.420330 -113.870351 108 23742ft 385kts
10-Nov-19 09:31 33.397587 -113.757524 108 23275ft 381kts
10-Nov-19 09:33 33.376022 -113.651006 108 22853ft 378kts
10-Nov-19 09:34 33.354676 -113.546060 107 22437ft 375kts
10-Nov-19 09:35 33.334444 -113.444761 105 21785ft 375kts
10-Nov-19 09:36 33.317008 -113.343323 105 20156ft 369kts
10-Nov-19 09:37 33.298963 -113.239210 105 18472ft 362kts
10-Nov-19 09:38 33.283386 -113.132463 102 16760ft 354kts
10-Nov-19 09:39 33.275161 -113.036135 90 15228ft 349kts
10-Nov-19 09:40 33.277559 -112.942882 89 13758ft 342kts
10-Nov-19 09:41 33.279821 -112.850696 89 12375ft 332kts
10-Nov-19 09:42 33.298758 -112.772590 65 11550ft 312kts
10-Nov-19 09:43 33.324327 -112.704585 65 10640ft 277kts
10-Nov-19 09:44 33.347435 -112.643789 64 9831ft 271kts
10-Nov-19 09:45 33.370184 -112.584222 64 8891ft 271kts
10-Nov-19 09:46 33.392188 -112.526470 64 8280ft 257kts
10-Nov-19 09:47 33.412687 -112.470872 66 7692ft 246kts
10-Nov-19 09:48 33.428731 -112.411568 88 6854ft 245kts
10-Nov-19 09:49 33.428681 -112.348063 88 6100ft 242kts
10-Nov-19 09:50 33.428943 -112.283583 83 5336ft 237kts
10-Nov-19 09:51 33.438723 -112.225414 79 4914ft 219kts
10-Nov-19 09:52 33.441176 -112.167475 90 3420ft 229kts
10-Nov-19 09:53 33.441025 -112.112883 90 2543ft 212kts
10-Nov-19 09:53 33.440946 -112.074435 90 1941ft 180kts
10-Nov-19 09:55 33.440840 -112.031801 89 1181ft 135kts
10-Nov-19 09:56 33.440843 -112.012071 90 1129ft 30kts
10-Nov-19 09:56 33.440851 -112.009306 91 1130ft 13kts
10-Nov-19 09:57 33.439776 -112.007356 181 1131ft 11kts
10-Nov-19 09:59 33.439008 -112.005178 89 1131ft 13kts
10-Nov-19 09:59 33.439046 -112.002748 89 1132ft 14kts
10-Nov-19 10:00 33.438363 -112.000766 176 1131ft 9kts
10-Nov-19 10:01 33.436892 -112.000843 243 1131ft 1kts
10-Nov-19 10:02 33.436839 -112.001297 268 1131ft 0kts
10-Nov-19 10:03 33.436839 -112.001297 268 1131ft 0kts
10-Nov-19 10:04 33.436839 -112.001297 268 1131ft 0kts
10-Nov-19 10:05 33.436839 -112.001297 268 1131ft 0kts
10-Nov-19 10:06 33.436839 -112.001297 268 1131ft 0kts
10-Nov-19 10:07 33.436839 -112.001297 268 1131ft 0kts
10-Nov-19 10:08 33.436839 -112.001297 268 1131ft 0kts
10-Nov-19 10:09 33.436839 -112.001297 268 1131ft 0kts

Navigation Log

Ident Type
Flight plan parsing failed, navigation log unavailable